createdAt,value
2019-05-12T00:01:18.802Z,101047.48
2019-05-12T00:03:53.341Z,101048.39
2019-05-12T00:06:28.422Z,101046.72
2019-05-12T00:09:02.734Z,101047.73
2019-05-12T00:11:37.885Z,101046.95
2019-05-12T00:14:12.054Z,101053.16
2019-05-12T00:16:46.056Z,101055.89
2019-05-12T00:19:19.857Z,101055.58
2019-05-12T00:21:53.849Z,101054.19
2019-05-12T00:24:28.057Z,101047.37
2019-05-12T00:27:04.948Z,101050.48
2019-05-12T00:29:38.829Z,101051.89
2019-05-12T00:32:13.131Z,101059.09
2019-05-12T00:34:48.058Z,101062.97
2019-05-12T00:37:22.949Z,101056.53
2019-05-12T00:39:59.275Z,101057.10
2019-05-12T00:42:33.811Z,101060.50
2019-05-12T00:45:08.714Z,101062.81
2019-05-12T00:47:43.828Z,101063.69
2019-05-12T00:50:20.657Z,101066.78
2019-05-12T00:52:57.999Z,101065.98
2019-05-12T00:55:38.871Z,101076.86
2019-05-12T00:58:31.676Z,101077.45
2019-05-12T01:01:25.510Z,101073.70
2019-05-12T01:04:12.649Z,101075.54
2019-05-12T01:07:05.683Z,101069.58
2019-05-12T01:10:13.397Z,101076.63
2019-05-12T01:18:18.175Z,101082.01
2019-05-12T01:21:03.495Z,101088.86
2019-05-12T01:24:38.381Z,101092.49
2019-05-12T01:28:48.758Z,101097.80
2019-05-12T01:39:33.536Z,101105.33
2019-05-12T01:43:08.841Z,101117.16
2019-05-12T01:46:28.778Z,101118.57
2019-05-12T01:50:28.469Z,101127.14
2019-05-12T01:53:14.021Z,101130.38
2019-05-12T01:55:54.983Z,101127.82
2019-05-12T01:58:39.519Z,101119.88
2019-05-12T02:02:31.228Z,101125.61
2019-05-12T02:06:15.054Z,101126.48
2019-05-12T02:12:14.187Z,101132.75
2019-05-12T02:14:53.564Z,101135.35
2019-05-12T02:17:28.308Z,101143.70
2019-05-12T02:20:03.332Z,101146.77
2019-05-12T02:22:38.913Z,101151.16
2019-05-12T02:25:13.001Z,101161.22
2019-05-12T02:59:06.651Z,101195.95
2019-05-12T03:09:30.172Z,101223.05
2019-05-12T03:12:44.710Z,101219.58
2019-05-12T03:23:39.384Z,101240.95
2019-05-12T03:26:24.623Z,101240.50
2019-05-12T03:29:05.703Z,101247.03
2019-05-12T03:31:48.623Z,101252.31
2019-05-12T04:30:08.477Z,101354.00
2019-05-12T04:32:45.218Z,101358.84
2019-05-12T04:35:19.315Z,101359.27
2019-05-12T04:37:55.350Z,101355.30
2019-05-12T04:40:49.228Z,101365.77
2019-05-12T04:47:45.999Z,101363.14
2019-05-12T04:50:24.541Z,101382.80
2019-05-12T04:53:18.825Z,101387.98
2019-05-12T04:56:07.433Z,101389.27
2019-05-12T04:58:34.874Z,101382.77
2019-05-12T05:01:17.892Z,101396.70
2019-05-12T05:03:56.608Z,101398.05
2019-05-12T05:06:35.723Z,101400.20
2019-05-12T05:09:14.418Z,101407.21
2019-05-12T05:11:48.338Z,101412.89
2019-05-12T05:14:24.910Z,101415.02
2019-05-12T05:17:00.999Z,101415.89
2019-05-12T05:19:36.403Z,101421.55
2019-05-12T05:22:47.581Z,101431.59
2019-05-12T05:26:04.395Z,101443.84
2019-05-12T05:38:51.059Z,101446.38
2019-05-12T05:41:29.449Z,101455.52
2019-05-12T06:32:11.273Z,101531.66
2019-05-12T06:34:46.087Z,101529.09
2019-05-12T06:37:57.352Z,101530.44
2019-05-12T06:40:46.316Z,101535.61
2019-05-12T06:43:33.598Z,101543.08
2019-05-12T06:46:11.793Z,101553.97
2019-05-12T06:49:10.258Z,101558.79
2019-05-12T06:52:00.774Z,101570.66
2019-05-12T06:54:34.455Z,101579.84
2019-05-12T06:57:22.109Z,101573.28
2019-05-12T07:00:08.766Z,101580.23
2019-05-12T07:02:55.128Z,101584.19
2019-05-12T07:05:50.386Z,101586.41
2019-05-12T07:08:32.806Z,101586.02
2019-05-12T07:11:07.700Z,101594.35
2019-05-12T07:13:46.648Z,101596.97
2019-05-12T07:16:29.515Z,101590.95
2019-05-12T07:19:29.701Z,101599.69
2019-05-12T07:50:58.442Z,101642.59
2019-05-12T07:53:30.195Z,101646.55
2019-05-12T07:56:07.190Z,101650.98
2019-05-12T07:58:47.458Z,101664.53
2019-05-12T08:01:18.418Z,101666.31
2019-05-12T08:03:57.337Z,101671.56
2019-05-12T08:06:34.615Z,101675.86
2019-05-12T08:09:13.450Z,101676.30
2019-05-12T08:12:19.066Z,101678.11
2019-05-12T08:15:15.839Z,101681.59
2019-05-12T08:17:59.679Z,101687.76
2019-05-12T08:21:07.300Z,101682.52
2019-05-12T08:23:48.619Z,101684.73
2019-05-12T08:40:10.203Z,101713.22
2019-05-12T08:54:11.029Z,101735.11
2019-05-12T09:13:43.225Z,101770.21
2019-05-12T09:46:03.799Z,101825.84
2019-05-12T09:55:17.892Z,101848.66
2019-05-12T10:07:19.465Z,101865.28
2019-05-12T10:09:55.132Z,101860.11
2019-05-12T10:12:36.601Z,101861.84
2019-05-12T10:15:06.889Z,101856.61
2019-05-12T10:17:40.543Z,101867.57
2019-05-12T10:20:15.204Z,101863.63
2019-05-12T10:22:49.761Z,101873.31
2019-05-12T10:25:28.504Z,101882.13
2019-05-12T10:28:02.991Z,101879.42
2019-05-12T10:30:34.405Z,101880.38
2019-05-12T10:33:07.940Z,101886.92
2019-05-12T10:35:43.667Z,101895.30
2019-05-12T10:38:16.407Z,101892.27
2019-05-12T10:40:51.122Z,101889.66
2019-05-12T10:43:24.936Z,101886.98
2019-05-12T10:46:07.215Z,101894.03
2019-05-12T10:51:53.981Z,101898.41
2019-05-12T10:54:28.696Z,101906.74
2019-05-12T10:57:05.053Z,101913.30
2019-05-12T10:59:43.397Z,101915.73
2019-05-12T11:02:14.003Z,101917.87
2019-05-12T11:04:49.067Z,101917.38
2019-05-12T11:07:28.005Z,101925.77
2019-05-12T11:10:05.594Z,101931.81
2019-05-12T11:12:36.388Z,101933.94
2019-05-12T11:27:34.399Z,101946.61
2019-05-12T11:45:44.202Z,101972.27
2019-05-12T11:48:46.323Z,101978.43
2019-05-12T11:58:33.508Z,101989.43
2019-05-12T12:01:17.879Z,102000.44
2019-05-12T12:03:54.502Z,101996.50
2019-05-12T12:06:33.166Z,101999.56
2019-05-12T12:09:15.494Z,102003.14
2019-05-12T12:11:45.189Z,102004.84
2019-05-12T12:14:20.045Z,102009.70
2019-05-12T12:16:54.459Z,102011.47
2019-05-12T12:19:37.830Z,102010.59
2019-05-12T12:22:05.228Z,102012.79
2019-05-12T12:36:04.253Z,102031.22
2019-05-12T12:38:38.266Z,102037.39
2019-05-12T12:41:13.186Z,102038.72
2019-05-12T12:43:47.137Z,102044.41
2019-05-12T12:46:24.697Z,102051.87
2019-05-12T12:49:00.163Z,102048.35
2019-05-12T12:51:34.340Z,102053.15
2019-05-12T12:54:08.264Z,102052.31
2019-05-12T12:56:43.110Z,102054.95
2019-05-12T12:59:17.109Z,102064.19
2019-05-12T13:01:51.128Z,102064.15
2019-05-12T13:04:24.903Z,102068.98
2019-05-12T13:06:58.672Z,102076.47
2019-05-12T13:09:33.514Z,102079.53
2019-05-12T13:12:14.307Z,102082.59
2019-05-12T13:14:44.319Z,102089.59
2019-05-12T13:17:20.034Z,102096.18
2019-05-12T13:19:58.553Z,102098.80
2019-05-12T13:22:29.799Z,102106.20
2019-05-12T13:25:08.593Z,102103.97
2019-05-12T13:27:40.479Z,102104.45
2019-05-12T13:30:21.144Z,102110.14
2019-05-12T13:32:55.857Z,102111.42
2019-05-12T13:35:43.564Z,102112.69
2019-05-12T13:38:17.033Z,102121.90
2019-05-12T13:40:50.535Z,102123.66
2019-05-12T13:43:25.938Z,102141.67
2019-05-12T13:45:59.488Z,102147.28
2019-05-12T13:48:34.032Z,102148.19
2019-05-12T13:51:13.195Z,102145.14
2019-05-12T13:53:53.784Z,102141.25
2019-05-12T13:56:32.808Z,102136.92
2019-05-12T14:11:38.938Z,102140.88
2019-05-12T14:30:24.387Z,102137.01
2019-05-12T14:33:18.450Z,102134.81
2019-05-12T15:09:36.345Z,102134.51
2019-05-12T15:16:40.421Z,102174.08
2019-05-12T15:23:32.336Z,102167.05
2019-05-12T15:26:29.646Z,102169.70
2019-05-12T15:29:56.373Z,102174.52
2019-05-12T15:36:07.507Z,102184.21
2019-05-12T15:38:43.715Z,102195.63
2019-05-12T15:42:09.183Z,102191.23
2019-05-12T15:53:35.847Z,102203.54
2019-05-12T15:56:14.989Z,102210.13
2019-05-12T15:58:45.551Z,102212.77
2019-05-12T16:01:21.316Z,102208.83
2019-05-12T16:14:25.126Z,102210.08
2019-05-12T16:17:27.142Z,102202.67
2019-05-12T16:20:00.712Z,102209.69
2019-05-12T16:22:36.835Z,102210.55
2019-05-12T16:25:10.865Z,102211.88
2019-05-12T16:27:45.274Z,102214.97
2019-05-12T16:30:20.272Z,102218.49
2019-05-12T16:32:55.021Z,102218.05
2019-05-12T16:35:31.746Z,102213.63
2019-05-12T16:38:06.012Z,102221.53
2019-05-12T16:40:45.566Z,102220.70
2019-05-12T16:43:16.550Z,102223.34
2019-05-12T16:45:50.309Z,102229.90
2019-05-12T16:48:33.071Z,102227.72
2019-05-12T16:51:03.163Z,102232.55
2019-05-12T16:53:36.819Z,102231.69
2019-05-12T16:56:10.690Z,102235.62
2019-05-12T16:58:44.638Z,102239.14
2019-05-12T17:01:19.381Z,102233.41
2019-05-12T17:03:54.712Z,102233.43
2019-05-12T17:06:33.880Z,102243.98
2019-05-12T17:09:05.030Z,102246.61
2019-05-12T17:11:47.309Z,102249.23
2019-05-12T17:14:13.825Z,102247.03
2019-05-12T17:16:48.964Z,102257.13
2019-05-12T17:19:23.658Z,102256.26
2019-05-12T17:21:59.403Z,102264.17
2019-05-12T17:24:34.253Z,102263.72
2019-05-12T17:27:09.141Z,102268.13
2019-05-12T17:29:43.497Z,102270.72
2019-05-12T17:32:16.806Z,102269.40
2019-05-12T17:34:50.215Z,102278.20
2019-05-12T17:37:23.930Z,102281.26
2019-05-12T17:39:57.300Z,102289.17
2019-05-12T17:42:33.290Z,102283.42
2019-05-12T17:45:09.397Z,102291.33
2019-05-12T17:47:41.279Z,102296.16
2019-05-12T17:50:14.959Z,102299.20
2019-05-12T17:52:50.362Z,102291.30
2019-05-12T17:55:23.312Z,102300.08
2019-05-12T17:57:57.906Z,102300.97
2019-05-12T18:00:33.548Z,102307.12
2019-05-12T18:03:18.143Z,102298.78
2019-05-12T18:05:47.548Z,102305.34
2019-05-12T18:08:17.513Z,102316.73
2019-05-12T18:10:54.284Z,102323.34
2019-05-12T18:13:28.178Z,102321.59
2019-05-12T18:16:05.580Z,102322.02
2019-05-12T18:18:43.400Z,102328.16
2019-05-12T18:21:22.116Z,102337.36
2019-05-12T18:23:53.664Z,102335.17
2019-05-12T18:26:27.367Z,102323.24
2019-05-12T18:29:03.881Z,102350.49
2019-05-12T18:31:36.697Z,102354.02
2019-05-12T18:34:10.422Z,102359.70
2019-05-12T18:36:49.024Z,102355.28
2019-05-12T18:39:19.836Z,102354.81
2019-05-12T18:41:54.605Z,102363.60
2019-05-12T18:44:31.734Z,102362.68
2019-05-12T18:47:07.925Z,102362.23
2019-05-12T18:49:47.811Z,102369.62
2019-05-12T18:52:23.770Z,102369.58
2019-05-12T18:54:58.006Z,102374.85
2019-05-12T18:57:39.016Z,102377.06
2019-05-12T19:00:19.450Z,102379.24
2019-05-12T19:02:54.617Z,102386.23
2019-05-12T19:05:30.967Z,102386.25
2019-05-12T19:08:04.815Z,102390.60
2019-05-12T19:10:45.990Z,102389.27
2019-05-12T19:13:14.645Z,102389.22
2019-05-12T19:15:52.616Z,102396.70
2019-05-12T19:18:32.345Z,102404.58
2019-05-12T19:21:01.271Z,102405.44
2019-05-12T19:23:37.618Z,102399.30
2019-05-12T19:26:13.549Z,102405.83
2019-05-12T19:28:52.823Z,102415.48
2019-05-12T19:31:24.767Z,102416.37
2019-05-12T19:34:15.724Z,102419.00
2019-05-12T19:36:45.012Z,102419.78
2019-05-12T19:39:11.843Z,102423.77
2019-05-12T19:41:46.053Z,102431.61
2019-05-12T19:44:19.904Z,102430.23
2019-05-12T19:46:54.632Z,102434.63
2019-05-12T19:49:28.387Z,102433.55
2019-05-12T19:52:03.652Z,102437.11
2019-05-12T19:54:38.131Z,102441.03
2019-05-12T19:57:15.599Z,102444.08
2019-05-12T19:59:50.969Z,102448.05
2019-05-12T20:02:23.687Z,102452.84
2019-05-12T20:04:57.181Z,102456.36
2019-05-12T20:07:33.726Z,102463.36
2019-05-12T20:10:06.641Z,102467.75
2019-05-12T20:12:40.072Z,102471.67
2019-05-12T20:15:15.019Z,102479.98
2019-05-12T20:17:48.921Z,102483.92
2019-05-12T20:20:28.850Z,102481.67
2019-05-12T20:22:57.493Z,102486.03
2019-05-12T20:25:31.002Z,102482.97
2019-05-12T20:28:11.020Z,102497.87
2019-05-12T20:30:39.436Z,102491.70
2019-05-12T20:33:13.774Z,102496.47
2019-05-12T20:35:49.201Z,102497.67
2019-05-12T20:38:25.486Z,102499.80
2019-05-12T20:40:58.119Z,102500.23
2019-05-12T20:43:37.179Z,102499.77
2019-05-12T20:46:06.585Z,102499.33
2019-05-12T20:48:40.019Z,102495.35
2019-05-12T20:51:15.310Z,102499.27
2019-05-12T20:53:48.570Z,102502.80
2019-05-12T20:56:24.720Z,102508.94
2019-05-12T20:58:58.315Z,102504.09
2019-05-12T21:01:33.610Z,102507.19
2019-05-12T21:04:07.885Z,102496.70
2019-05-12T21:06:43.141Z,102499.77
2019-05-12T21:09:16.672Z,102507.63
2019-05-12T21:11:50.173Z,102509.88
2019-05-12T21:14:24.091Z,102512.06
2019-05-12T21:16:57.615Z,102514.30
2019-05-12T21:19:37.946Z,102515.17
2019-05-12T21:22:06.157Z,102515.08
2019-05-12T21:24:39.600Z,102515.89
2019-05-12T21:27:15.731Z,102521.56
2019-05-12T21:29:48.166Z,102514.14
2019-05-12T21:32:24.034Z,102524.25
2019-05-12T21:34:57.906Z,102522.97
2019-05-12T21:37:37.045Z,102520.77
2019-05-12T21:40:08.637Z,102524.31
2019-05-12T21:42:44.320Z,102526.00
2019-05-12T21:45:23.778Z,102528.59
2019-05-12T21:47:56.304Z,102527.78
2019-05-12T21:50:32.693Z,102530.82
2019-05-12T21:53:04.332Z,102528.19
2019-05-12T21:55:37.935Z,102525.50
2019-05-12T21:58:12.904Z,102529.04
2019-05-12T22:00:59.564Z,102532.08
2019-05-12T22:03:27.939Z,102529.72
2019-05-12T22:06:06.466Z,102534.06
2019-05-12T22:08:36.473Z,102534.00
2019-05-12T22:11:11.750Z,102530.77
2019-05-12T22:13:54.873Z,102536.09
2019-05-12T22:16:20.577Z,102529.48
2019-05-12T22:18:59.045Z,102533.86
2019-05-12T22:21:29.450Z,102534.23
2019-05-12T22:24:06.181Z,102539.48
2019-05-12T22:26:40.371Z,102533.76
2019-05-12T22:29:13.977Z,102535.55
2019-05-12T22:31:48.298Z,102536.83
2019-05-12T22:34:27.365Z,102536.83
2019-05-12T22:36:59.243Z,102534.63
2019-05-12T22:39:33.896Z,102531.39
2019-05-12T22:42:11.629Z,102532.66
2019-05-12T22:44:43.754Z,102538.83
2019-05-12T22:47:17.963Z,102525.70
2019-05-12T22:49:55.330Z,102528.80
2019-05-12T22:52:26.577Z,102529.70
2019-05-12T22:55:00.034Z,102529.59
2019-05-12T22:57:38.300Z,102529.56
2019-05-12T23:00:13.523Z,102525.63
2019-05-12T23:02:46.596Z,102522.16
2019-05-12T23:05:20.704Z,102527.38
2019-05-12T23:07:54.537Z,102524.31
2019-05-12T23:10:28.223Z,102528.25
2019-05-12T23:13:04.746Z,102526.94
2019-05-12T23:15:42.286Z,102530.44
2019-05-12T23:18:12.254Z,102535.22
2019-05-12T23:20:45.724Z,102533.03
2019-05-12T23:23:19.160Z,102538.76
2019-05-12T23:26:00.194Z,102537.45
2019-05-12T23:28:27.960Z,102537.84
2019-05-12T23:31:01.491Z,102538.36
2019-05-12T23:33:36.605Z,102538.39
2019-05-12T23:36:15.834Z,102537.45
2019-05-12T23:38:51.996Z,102529.56
2019-05-12T23:41:23.796Z,102532.55
2019-05-12T23:43:57.326Z,102539.56
2019-05-12T23:46:30.821Z,102528.17
2019-05-12T23:49:04.323Z,102539.92
2019-05-12T23:51:37.853Z,102537.30
2019-05-12T23:54:11.293Z,102533.75
2019-05-12T23:56:44.810Z,102527.12
2019-05-12T23:59:18.301Z,102528.42
